sensor_id;sensor_type;location;lat;lon;timestamp;P1;durP1;ratioP1;P2;durP2;ratioP2
23670;SDS011;12012;51.998;7.614;2023-07-29T00:00:45;5.78;;;4.72;;
23670;SDS011;12012;51.998;7.614;2023-07-29T00:03:11;4.68;;;4.20;;
23670;SDS011;12012;51.998;7.614;2023-07-29T00:05:37;5.15;;;4.65;;
23670;SDS011;12012;51.998;7.614;2023-07-29T00:08:03;6.57;;;4.28;;
23670;SDS011;12012;51.998;7.614;2023-07-29T00:10:31;6.22;;;4.65;;
23670;SDS011;12012;51.998;7.614;2023-07-29T00:12:57;5.72;;;4.30;;
23670;SDS011;12012;51.998;7.614;2023-07-29T00:15:23;4.07;;;3.67;;
23670;SDS011;12012;51.998;7.614;2023-07-29T00:17:49;4.75;;;3.90;;
23670;SDS011;12012;51.998;7.614;2023-07-29T00:20:14;4.07;;;3.75;;
23670;SDS011;12012;51.998;7.614;2023-07-29T00:22:41;4.38;;;3.85;;
23670;SDS011;12012;51.998;7.614;2023-07-29T00:25:06;6.05;;;4.10;;
23670;SDS011;12012;51.998;7.614;2023-07-29T00:27:32;3.78;;;3.47;;
23670;SDS011;12012;51.998;7.614;2023-07-29T00:29:58;3.70;;;3.40;;
23670;SDS011;12012;51.998;7.614;2023-07-29T00:32:23;4.80;;;3.53;;
23670;SDS011;12012;51.998;7.614;2023-07-29T00:34:49;4.57;;;3.67;;
23670;SDS011;12012;51.998;7.614;2023-07-29T00:37:15;4.85;;;3.40;;
23670;SDS011;12012;51.998;7.614;2023-07-29T00:39:41;4.07;;;3.20;;
23670;SDS011;12012;51.998;7.614;2023-07-29T00:42:06;3.70;;;2.75;;
23670;SDS011;12012;51.998;7.614;2023-07-29T00:44:32;3.20;;;2.90;;
23670;SDS011;12012;51.998;7.614;2023-07-29T00:46:57;4.30;;;3.90;;
23670;SDS011;12012;51.998;7.614;2023-07-29T00:49:25;3.17;;;2.88;;
23670;SDS011;12012;51.998;7.614;2023-07-29T00:51:51;5.10;;;4.60;;
23670;SDS011;12012;51.998;7.614;2023-07-29T00:54:17;5.40;;;3.95;;
23670;SDS011;12012;51.998;7.614;2023-07-29T00:56:42;3.55;;;3.22;;
23670;SDS011;12012;51.998;7.614;2023-07-29T00:59:08;5.40;;;4.90;;
23670;SDS011;12012;51.998;7.614;2023-07-29T01:01:33;7.63;;;4.13;;
23670;SDS011;12012;51.998;7.614;2023-07-29T01:04:00;4.22;;;3.83;;
23670;SDS011;12012;51.998;7.614;2023-07-29T01:09:20;5.70;;;4.88;;
23670;SDS011;12012;51.998;7.614;2023-07-29T01:12:08;5.53;;;4.88;;
23670;SDS011;12012;51.998;7.614;2023-07-29T01:14:47;5.32;;;4.82;;
23670;SDS011;12012;51.998;7.614;2023-07-29T01:17:23;5.45;;;4.35;;
23670;SDS011;12012;51.998;7.614;2023-07-29T01:22:33;5.65;;;4.28;;
23670;SDS011;12012;51.998;7.614;2023-07-29T01:24:59;6.00;;;5.03;;
23670;SDS011;12012;51.998;7.614;2023-07-29T01:27:25;6.68;;;5.88;;
23670;SDS011;12012;51.998;7.614;2023-07-29T01:29:52;8.68;;;7.32;;
23670;SDS011;12012;51.998;7.614;2023-07-29T01:34:56;7.53;;;6.50;;
23670;SDS011;12012;51.998;7.614;2023-07-29T01:37:29;7.07;;;5.45;;
23670;SDS011;12012;51.998;7.614;2023-07-29T01:39:58;4.88;;;4.40;;
23670;SDS011;12012;51.998;7.614;2023-07-29T01:42:25;6.07;;;5.47;;
23670;SDS011;12012;51.998;7.614;2023-07-29T01:44:51;6.13;;;4.95;;
23670;SDS011;12012;51.998;7.614;2023-07-29T01:47:17;6.55;;;5.95;;
23670;SDS011;12012;51.998;7.614;2023-07-29T01:49:43;5.78;;;5.03;;
23670;SDS011;12012;51.998;7.614;2023-07-29T01:52:08;10.65;;;7.65;;
23670;SDS011;12012;51.998;7.614;2023-07-29T01:54:34;5.93;;;4.75;;
23670;SDS011;12012;51.998;7.614;2023-07-29T01:56:59;6.90;;;5.45;;
23670;SDS011;12012;51.998;7.614;2023-07-29T01:59:25;9.98;;;5.65;;
23670;SDS011;12012;51.998;7.614;2023-07-29T02:01:50;5.38;;;4.85;;
23670;SDS011;12012;51.998;7.614;2023-07-29T02:04:16;8.85;;;6.13;;
23670;SDS011;12012;51.998;7.614;2023-07-29T02:06:42;6.47;;;5.00;;
23670;SDS011;12012;51.998;7.614;2023-07-29T02:09:07;7.32;;;4.45;;
23670;SDS011;12012;51.998;7.614;2023-07-29T02:11:33;4.45;;;4.05;;
23670;SDS011;12012;51.998;7.614;2023-07-29T02:13:58;4.40;;;3.83;;
23670;SDS011;12012;51.998;7.614;2023-07-29T02:16:24;5.18;;;4.32;;
23670;SDS011;12012;51.998;7.614;2023-07-29T02:18:49;5.78;;;4.32;;
23670;SDS011;12012;51.998;7.614;2023-07-29T02:21:15;5.60;;;4.00;;
23670;SDS011;12012;51.998;7.614;2023-07-29T02:23:41;6.78;;;5.10;;
23670;SDS011;12012;51.998;7.614;2023-07-29T02:26:07;5.07;;;4.68;;
23670;SDS011;12012;51.998;7.614;2023-07-29T02:28:33;7.43;;;4.40;;
23670;SDS011;12012;51.998;7.614;2023-07-29T02:31:14;5.30;;;4.47;;
23670;SDS011;12012;51.998;7.614;2023-07-29T02:33:41;6.60;;;4.28;;
23670;SDS011;12012;51.998;7.614;2023-07-29T02:36:08;5.72;;;4.25;;
23670;SDS011;12012;51.998;7.614;2023-07-29T02:38:34;4.63;;;4.15;;
23670;SDS011;12012;51.998;7.614;2023-07-29T02:40:59;6.63;;;4.30;;
23670;SDS011;12012;51.998;7.614;2023-07-29T02:43:25;4.20;;;3.80;;
23670;SDS011;12012;51.998;7.614;2023-07-29T02:45:50;7.82;;;5.25;;
23670;SDS011;12012;51.998;7.614;2023-07-29T02:48:16;4.35;;;3.83;;
23670;SDS011;12012;51.998;7.614;2023-07-29T02:50:41;4.47;;;3.88;;
23670;SDS011;12012;51.998;7.614;2023-07-29T02:53:07;6.35;;;4.10;;
23670;SDS011;12012;51.998;7.614;2023-07-29T02:55:32;6.10;;;4.22;;
23670;SDS011;12012;51.998;7.614;2023-07-29T02:57:58;5.97;;;3.60;;
23670;SDS011;12012;51.998;7.614;2023-07-29T03:00:23;3.55;;;3.25;;
23670;SDS011;12012;51.998;7.614;2023-07-29T03:02:49;3.78;;;3.47;;
23670;SDS011;12012;51.998;7.614;2023-07-29T03:05:15;4.50;;;4.10;;
23670;SDS011;12012;51.998;7.614;2023-07-29T03:07:41;5.85;;;4.95;;
23670;SDS011;12012;51.998;7.614;2023-07-29T03:10:06;7.85;;;5.53;;
23670;SDS011;12012;51.998;7.614;2023-07-29T03:12:32;12.82;;;5.10;;
23670;SDS011;12012;51.998;7.614;2023-07-29T03:14:58;7.40;;;5.70;;
23670;SDS011;12012;51.998;7.614;2023-07-29T03:17:25;7.40;;;5.38;;
23670;SDS011;12012;51.998;7.614;2023-07-29T03:19:51;4.90;;;4.40;;
23670;SDS011;12012;51.998;7.614;2023-07-29T03:22:17;4.80;;;4.00;;
23670;SDS011;12012;51.998;7.614;2023-07-29T03:24:42;6.00;;;4.00;;
23670;SDS011;12012;51.998;7.614;2023-07-29T03:27:08;3.60;;;3.30;;
23670;SDS011;12012;51.998;7.614;2023-07-29T03:29:35;6.55;;;4.50;;
23670;SDS011;12012;51.998;7.614;2023-07-29T03:32:00;5.40;;;4.90;;
23670;SDS011;12012;51.998;7.614;2023-07-29T03:34:26;5.03;;;4.10;;
23670;SDS011;12012;51.998;7.614;2023-07-29T03:36:51;7.38;;;4.38;;
23670;SDS011;12012;51.998;7.614;2023-07-29T03:39:17;7.28;;;6.45;;
23670;SDS011;12012;51.998;7.614;2023-07-29T03:41:43;5.45;;;3.95;;
23670;SDS011;12012;51.998;7.614;2023-07-29T03:44:08;9.70;;;5.38;;
23670;SDS011;12012;51.998;7.614;2023-07-29T03:46:34;5.25;;;4.75;;
23670;SDS011;12012;51.998;7.614;2023-07-29T03:48:59;4.50;;;4.10;;
23670;SDS011;12012;51.998;7.614;2023-07-29T03:51:25;5.43;;;4.25;;
23670;SDS011;12012;51.998;7.614;2023-07-29T03:53:50;4.00;;;3.60;;
23670;SDS011;12012;51.998;7.614;2023-07-29T03:56:16;4.63;;;4.15;;
23670;SDS011;12012;51.998;7.614;2023-07-29T03:58:42;6.13;;;4.32;;
23670;SDS011;12012;51.998;7.614;2023-07-29T04:01:09;5.30;;;4.90;;
23670;SDS011;12012;51.998;7.614;2023-07-29T04:03:34;5.20;;;4.70;;
23670;SDS011;12012;51.998;7.614;2023-07-29T04:06:00;5.93;;;5.32;;
23670;SDS011;12012;51.998;7.614;2023-07-29T04:08:25;5.15;;;4.65;;
23670;SDS011;12012;51.998;7.614;2023-07-29T04:10:51;4.55;;;3.97;;
23670;SDS011;12012;51.998;7.614;2023-07-29T04:13:17;5.35;;;4.47;;
23670;SDS011;12012;51.998;7.614;2023-07-29T04:15:42;5.07;;;4.53;;
23670;SDS011;12012;51.998;7.614;2023-07-29T04:18:08;5.53;;;5.03;;
23670;SDS011;12012;51.998;7.614;2023-07-29T04:20:33;6.50;;;5.90;;
23670;SDS011;12012;51.998;7.614;2023-07-29T04:22:59;4.43;;;3.78;;
23670;SDS011;12012;51.998;7.614;2023-07-29T04:25:25;7.45;;;6.70;;
23670;SDS011;12012;51.998;7.614;2023-07-29T04:27:50;6.22;;;5.63;;
23670;SDS011;12012;51.998;7.614;2023-07-29T04:30:16;5.50;;;4.45;;
23670;SDS011;12012;51.998;7.614;2023-07-29T04:32:41;8.00;;;4.82;;
23670;SDS011;12012;51.998;7.614;2023-07-29T04:35:07;4.90;;;4.40;;
23670;SDS011;12012;51.998;7.614;2023-07-29T04:37:33;8.07;;;7.25;;
23670;SDS011;12012;51.998;7.614;2023-07-29T04:39:59;7.25;;;6.55;;
23670;SDS011;12012;51.998;7.614;2023-07-29T04:42:24;7.28;;;5.65;;
23670;SDS011;12012;51.998;7.614;2023-07-29T04:44:50;5.55;;;5.00;;
23670;SDS011;12012;51.998;7.614;2023-07-29T04:47:16;5.18;;;4.68;;
23670;SDS011;12012;51.998;7.614;2023-07-29T04:49:41;4.70;;;4.30;;
23670;SDS011;12012;51.998;7.614;2023-07-29T04:52:07;5.18;;;3.90;;
23670;SDS011;12012;51.998;7.614;2023-07-29T04:54:32;5.47;;;4.10;;
23670;SDS011;12012;51.998;7.614;2023-07-29T04:56:58;4.38;;;3.97;;
23670;SDS011;12012;51.998;7.614;2023-07-29T04:59:24;7.22;;;5.47;;
23670;SDS011;12012;51.998;7.614;2023-07-29T05:01:49;5.90;;;5.25;;
23670;SDS011;12012;51.998;7.614;2023-07-29T05:04:15;5.88;;;4.97;;
23670;SDS011;12012;51.998;7.614;2023-07-29T05:06:40;6.00;;;4.68;;
23670;SDS011;12012;51.998;7.614;2023-07-29T05:09:12;7.18;;;4.40;;
23670;SDS011;12012;51.998;7.614;2023-07-29T05:11:42;6.15;;;4.68;;
23670;SDS011;12012;51.998;7.614;2023-07-29T05:14:10;7.05;;;4.60;;
23670;SDS011;12012;51.998;7.614;2023-07-29T05:16:36;6.35;;;5.75;;
23670;SDS011;12012;51.998;7.614;2023-07-29T05:19:02;6.03;;;4.80;;
23670;SDS011;12012;51.998;7.614;2023-07-29T05:21:27;6.90;;;4.97;;
23670;SDS011;12012;51.998;7.614;2023-07-29T05:23:53;10.38;;;6.88;;
23670;SDS011;12012;51.998;7.614;2023-07-29T05:26:18;6.95;;;6.15;;
23670;SDS011;12012;51.998;7.614;2023-07-29T05:28:44;4.80;;;4.30;;
23670;SDS011;12012;51.998;7.614;2023-07-29T05:31:10;9.63;;;6.70;;
23670;SDS011;12012;51.998;7.614;2023-07-29T05:33:35;5.90;;;5.30;;
23670;SDS011;12012;51.998;7.614;2023-07-29T05:36:01;8.73;;;7.55;;
23670;SDS011;12012;51.998;7.614;2023-07-29T05:38:27;13.68;;;8.30;;
23670;SDS011;12012;51.998;7.614;2023-07-29T05:40:52;8.65;;;7.82;;
23670;SDS011;12012;51.998;7.614;2023-07-29T05:43:18;8.02;;;7.13;;
23670;SDS011;12012;51.998;7.614;2023-07-29T05:45:43;10.82;;;9.35;;
23670;SDS011;12012;51.998;7.614;2023-07-29T05:48:09;12.02;;;8.45;;
23670;SDS011;12012;51.998;7.614;2023-07-29T05:50:34;8.10;;;7.00;;
23670;SDS011;12012;51.998;7.614;2023-07-29T05:53:00;6.80;;;6.10;;
23670;SDS011;12012;51.998;7.614;2023-07-29T05:55:26;9.13;;;8.23;;
23670;SDS011;12012;51.998;7.614;2023-07-29T05:57:51;8.07;;;7.32;;
23670;SDS011;12012;51.998;7.614;2023-07-29T06:00:17;7.43;;;6.72;;
23670;SDS011;12012;51.998;7.614;2023-07-29T06:02:42;10.00;;;7.88;;
23670;SDS011;12012;51.998;7.614;2023-07-29T06:05:08;8.55;;;7.75;;
23670;SDS011;12012;51.998;7.614;2023-07-29T06:07:33;7.22;;;6.50;;
23670;SDS011;12012;51.998;7.614;2023-07-29T06:09:59;9.98;;;9.05;;
23670;SDS011;12012;51.998;7.614;2023-07-29T06:12:25;10.50;;;9.00;;
23670;SDS011;12012;51.998;7.614;2023-07-29T06:14:51;10.73;;;8.82;;
23670;SDS011;12012;51.998;7.614;2023-07-29T06:17:17;11.25;;;9.57;;
23670;SDS011;12012;51.998;7.614;2023-07-29T06:19:42;11.52;;;9.40;;
23670;SDS011;12012;51.998;7.614;2023-07-29T06:22:09;10.57;;;9.48;;
23670;SDS011;12012;51.998;7.614;2023-07-29T06:24:35;9.48;;;8.52;;
23670;SDS011;12012;51.998;7.614;2023-07-29T06:27:00;13.13;;;11.10;;
23670;SDS011;12012;51.998;7.614;2023-07-29T06:29:26;9.57;;;8.60;;
23670;SDS011;12012;51.998;7.614;2023-07-29T06:31:51;12.30;;;11.02;;
23670;SDS011;12012;51.998;7.614;2023-07-29T06:34:17;10.93;;;9.82;;
23670;SDS011;12012;51.998;7.614;2023-07-29T06:36:43;9.38;;;8.38;;
23670;SDS011;12012;51.998;7.614;2023-07-29T06:39:09;9.23;;;8.43;;
23670;SDS011;12012;51.998;7.614;2023-07-29T06:41:35;8.95;;;8.05;;
23670;SDS011;12012;51.998;7.614;2023-07-29T06:44:00;10.05;;;9.15;;
23670;SDS011;12012;51.998;7.614;2023-07-29T06:46:26;11.90;;;10.05;;
23670;SDS011;12012;51.998;7.614;2023-07-29T06:48:51;9.60;;;8.70;;
23670;SDS011;12012;51.998;7.614;2023-07-29T06:51:17;7.88;;;7.00;;
23670;SDS011;12012;51.998;7.614;2023-07-29T06:53:42;3.70;;;3.40;;
23670;SDS011;12012;51.998;7.614;2023-07-29T06:56:08;3.22;;;2.10;;
23670;SDS011;12012;51.998;7.614;2023-07-29T06:58:34;3.67;;;2.28;;
23670;SDS011;12012;51.998;7.614;2023-07-29T07:01:00;1.75;;;1.65;;
23670;SDS011;12012;51.998;7.614;2023-07-29T07:03:25;2.83;;;1.73;;
23670;SDS011;12012;51.998;7.614;2023-07-29T07:05:51;2.22;;;1.80;;
23670;SDS011;12012;51.998;7.614;2023-07-29T07:08:16;1.80;;;1.40;;
23670;SDS011;12012;51.998;7.614;2023-07-29T07:10:42;2.22;;;1.70;;
23670;SDS011;12012;51.998;7.614;2023-07-29T07:13:07;3.70;;;1.77;;
23670;SDS011;12012;51.998;7.614;2023-07-29T07:15:33;2.03;;;1.48;;
23670;SDS011;12012;51.998;7.614;2023-07-29T07:17:58;2.47;;;2.03;;
23670;SDS011;12012;51.998;7.614;2023-07-29T07:20:24;3.78;;;1.80;;
23670;SDS011;12012;51.998;7.614;2023-07-29T07:22:50;2.70;;;2.15;;
23670;SDS011;12012;51.998;7.614;2023-07-29T07:25:15;2.15;;;1.85;;
23670;SDS011;12012;51.998;7.614;2023-07-29T07:27:41;4.32;;;1.92;;
23670;SDS011;12012;51.998;7.614;2023-07-29T07:30:06;3.03;;;2.10;;
23670;SDS011;12012;51.998;7.614;2023-07-29T07:32:32;2.28;;;2.08;;
23670;SDS011;12012;51.998;7.614;2023-07-29T07:34:58;2.47;;;1.98;;
23670;SDS011;12012;51.998;7.614;2023-07-29T07:37:23;2.22;;;1.90;;
23670;SDS011;12012;51.998;7.614;2023-07-29T07:39:49;2.00;;;1.83;;
23670;SDS011;12012;51.998;7.614;2023-07-29T07:42:14;2.30;;;2.08;;
23670;SDS011;12012;51.998;7.614;2023-07-29T07:44:40;2.20;;;2.00;;
23670;SDS011;12012;51.998;7.614;2023-07-29T07:47:06;3.70;;;1.90;;
23670;SDS011;12012;51.998;7.614;2023-07-29T07:49:31;2.45;;;1.88;;
23670;SDS011;12012;51.998;7.614;2023-07-29T07:51:57;3.17;;;1.65;;
23670;SDS011;12012;51.998;7.614;2023-07-29T07:54:22;2.08;;;1.73;;
23670;SDS011;12012;51.998;7.614;2023-07-29T07:56:48;1.77;;;1.67;;
23670;SDS011;12012;51.998;7.614;2023-07-29T07:59:13;4.05;;;1.85;;
23670;SDS011;12012;51.998;7.614;2023-07-29T08:01:39;1.88;;;1.48;;
23670;SDS011;12012;51.998;7.614;2023-07-29T08:04:05;3.20;;;1.80;;
23670;SDS011;12012;51.998;7.614;2023-07-29T08:06:31;2.17;;;1.80;;
23670;SDS011;12012;51.998;7.614;2023-07-29T08:08:57;2.35;;;1.75;;
23670;SDS011;12012;51.998;7.614;2023-07-29T08:11:23;2.33;;;2.13;;
23670;SDS011;12012;51.998;7.614;2023-07-29T08:13:49;2.78;;;1.70;;
23670;SDS011;12012;51.998;7.614;2023-07-29T08:16:14;2.72;;;2.00;;
23670;SDS011;12012;51.998;7.614;2023-07-29T08:18:40;2.13;;;1.95;;
23670;SDS011;12012;51.998;7.614;2023-07-29T08:21:06;2.92;;;1.92;;
23670;SDS011;12012;51.998;7.614;2023-07-29T08:23:35;2.08;;;1.88;;
23670;SDS011;12012;51.998;7.614;2023-07-29T08:26:02;2.08;;;1.67;;
23670;SDS011;12012;51.998;7.614;2023-07-29T08:28:33;1.73;;;1.63;;
23670;SDS011;12012;51.998;7.614;2023-07-29T08:31:01;1.70;;;1.60;;
23670;SDS011;12012;51.998;7.614;2023-07-29T08:33:27;2.00;;;1.80;;
23670;SDS011;12012;51.998;7.614;2023-07-29T08:35:53;1.77;;;1.67;;
23670;SDS011;12012;51.998;7.614;2023-07-29T08:38:19;6.18;;;2.22;;
23670;SDS011;12012;51.998;7.614;2023-07-29T08:40:54;3.45;;;1.50;;
23670;SDS011;12012;51.998;7.614;2023-07-29T08:43:31;3.60;;;1.50;;
23670;SDS011;12012;51.998;7.614;2023-07-29T08:45:58;2.42;;;1.60;;
23670;SDS011;12012;51.998;7.614;2023-07-29T08:48:39;3.50;;;1.88;;
23670;SDS011;12012;51.998;7.614;2023-07-29T08:51:06;1.77;;;1.30;;
23670;SDS011;12012;51.998;7.614;2023-07-29T08:53:34;1.45;;;1.35;;
23670;SDS011;12012;51.998;7.614;2023-07-29T08:56:00;3.53;;;1.13;;
23670;SDS011;12012;51.998;7.614;2023-07-29T08:58:26;1.50;;;1.17;;
23670;SDS011;12012;51.998;7.614;2023-07-29T09:00:52;1.95;;;1.40;;
23670;SDS011;12012;51.998;7.614;2023-07-29T09:03:18;2.95;;;1.27;;
23670;SDS011;12012;51.998;7.614;2023-07-29T09:05:45;1.20;;;1.10;;
23670;SDS011;12012;51.998;7.614;2023-07-29T09:08:11;2.47;;;1.10;;
23670;SDS011;12012;51.998;7.614;2023-07-29T09:10:37;1.45;;;1.10;;
23670;SDS011;12012;51.998;7.614;2023-07-29T09:13:03;2.97;;;1.17;;
23670;SDS011;12012;51.998;7.614;2023-07-29T09:15:30;1.20;;;1.10;;
23670;SDS011;12012;51.998;7.614;2023-07-29T09:17:57;2.08;;;1.20;;
23670;SDS011;12012;51.998;7.614;2023-07-29T09:20:26;1.20;;;1.10;;
23670;SDS011;12012;51.998;7.614;2023-07-29T09:22:58;1.50;;;1.40;;
23670;SDS011;12012;51.998;7.614;2023-07-29T09:25:27;1.30;;;1.20;;
23670;SDS011;12012;51.998;7.614;2023-07-29T09:27:59;1.40;;;1.30;;
23670;SDS011;12012;51.998;7.614;2023-07-29T09:30:26;1.20;;;1.10;;
23670;SDS011;12012;51.998;7.614;2023-07-29T09:32:56;2.10;;;1.33;;
23670;SDS011;12012;51.998;7.614;2023-07-29T09:35:22;2.75;;;1.20;;
23670;SDS011;12012;51.998;7.614;2023-07-29T09:37:48;2.30;;;0.93;;
23670;SDS011;12012;51.998;7.614;2023-07-29T09:40:14;1.30;;;1.20;;
23670;SDS011;12012;51.998;7.614;2023-07-29T09:42:46;1.77;;;1.08;;
23670;SDS011;12012;51.998;7.614;2023-07-29T09:45:23;1.95;;;0.90;;
23670;SDS011;12012;51.998;7.614;2023-07-29T09:47:49;1.55;;;0.95;;
23670;SDS011;12012;51.998;7.614;2023-07-29T09:50:15;1.00;;;0.90;;
23670;SDS011;12012;51.998;7.614;2023-07-29T09:52:41;1.10;;;0.95;;
23670;SDS011;12012;51.998;7.614;2023-07-29T09:55:09;1.27;;;1.17;;
23670;SDS011;12012;51.998;7.614;2023-07-29T09:57:39;1.17;;;0.93;;
23670;SDS011;12012;51.998;7.614;2023-07-29T10:00:05;2.28;;;0.93;;
23670;SDS011;12012;51.998;7.614;2023-07-29T10:02:36;0.70;;;0.70;;
23670;SDS011;12012;51.998;7.614;2023-07-29T10:05:04;1.88;;;0.73;;
23670;SDS011;12012;51.998;7.614;2023-07-29T10:07:30;0.82;;;0.80;;
23670;SDS011;12012;51.998;7.614;2023-07-29T10:09:57;1.65;;;0.80;;
23670;SDS011;12012;51.998;7.614;2023-07-29T10:12:24;1.02;;;0.70;;
23670;SDS011;12012;51.998;7.614;2023-07-29T10:14:51;0.77;;;0.77;;
23670;SDS011;12012;51.998;7.614;2023-07-29T10:17:17;1.27;;;0.70;;
23670;SDS011;12012;51.998;7.614;2023-07-29T10:19:45;1.20;;;0.90;;
23670;SDS011;12012;51.998;7.614;2023-07-29T10:22:12;0.60;;;0.60;;
23670;SDS011;12012;51.998;7.614;2023-07-29T10:24:42;1.98;;;0.60;;
23670;SDS011;12012;51.998;7.614;2023-07-29T10:27:09;0.98;;;0.73;;
23670;SDS011;12012;51.998;7.614;2023-07-29T10:29:39;0.80;;;0.80;;
23670;SDS011;12012;51.998;7.614;2023-07-29T10:32:10;1.17;;;0.90;;
23670;SDS011;12012;51.998;7.614;2023-07-29T10:34:36;3.20;;;1.20;;
23670;SDS011;12012;51.998;7.614;2023-07-29T10:37:03;1.98;;;0.90;;
23670;SDS011;12012;51.998;7.614;2023-07-29T10:39:38;1.02;;;0.98;;
23670;SDS011;12012;51.998;7.614;2023-07-29T10:42:06;1.17;;;0.90;;
23670;SDS011;12012;51.998;7.614;2023-07-29T10:47:14;1.13;;;0.90;;
23670;SDS011;12012;51.998;7.614;2023-07-29T10:49:42;1.17;;;0.80;;
23670;SDS011;12012;51.998;7.614;2023-07-29T10:52:08;1.15;;;0.95;;
23670;SDS011;12012;51.998;7.614;2023-07-29T10:57:15;1.77;;;1.02;;
23670;SDS011;12012;51.998;7.614;2023-07-29T10:59:55;1.52;;;0.98;;
23670;SDS011;12012;51.998;7.614;2023-07-29T11:02:22;1.52;;;1.00;;
23670;SDS011;12012;51.998;7.614;2023-07-29T11:04:56;1.50;;;1.00;;
23670;SDS011;12012;51.998;7.614;2023-07-29T11:07:23;1.00;;;0.90;;
23670;SDS011;12012;51.998;7.614;2023-07-29T11:15:13;1.00;;;0.80;;
23670;SDS011;12012;51.998;7.614;2023-07-29T11:17:41;1.60;;;1.10;;
23670;SDS011;12012;51.998;7.614;2023-07-29T11:20:23;0.93;;;0.90;;
23670;SDS011;12012;51.998;7.614;2023-07-29T11:22:50;1.33;;;1.10;;
23670;SDS011;12012;51.998;7.614;2023-07-29T11:25:16;1.33;;;1.00;;
23670;SDS011;12012;51.998;7.614;2023-07-29T11:27:43;2.63;;;1.30;;
23670;SDS011;12012;51.998;7.614;2023-07-29T11:30:10;3.33;;;1.27;;
23670;SDS011;12012;51.998;7.614;2023-07-29T11:32:37;2.38;;;1.15;;
23670;SDS011;12012;51.998;7.614;2023-07-29T11:37:35;1.42;;;1.33;;
23670;SDS011;12012;51.998;7.614;2023-07-29T11:40:01;1.52;;;0.98;;
23670;SDS011;12012;51.998;7.614;2023-07-29T11:42:28;1.77;;;1.05;;
23670;SDS011;12012;51.998;7.614;2023-07-29T11:44:56;1.38;;;1.20;;
23670;SDS011;12012;51.998;7.614;2023-07-29T11:47:23;1.30;;;1.13;;
23670;SDS011;12012;51.998;7.614;2023-07-29T11:49:49;2.35;;;1.20;;
23670;SDS011;12012;51.998;7.614;2023-07-29T11:52:14;1.65;;;1.33;;
23670;SDS011;12012;51.998;7.614;2023-07-29T11:54:43;1.02;;;1.00;;
23670;SDS011;12012;51.998;7.614;2023-07-29T11:57:09;1.40;;;1.10;;
23670;SDS011;12012;51.998;7.614;2023-07-29T11:59:35;1.60;;;1.10;;
23670;SDS011;12012;51.998;7.614;2023-07-29T12:02:05;2.50;;;1.10;;
23670;SDS011;12012;51.998;7.614;2023-07-29T12:04:41;1.70;;;1.10;;
23670;SDS011;12012;51.998;7.614;2023-07-29T12:07:08;1.30;;;1.20;;
23670;SDS011;12012;51.998;7.614;2023-07-29T12:09:36;1.20;;;1.10;;
23670;SDS011;12012;51.998;7.614;2023-07-29T12:12:03;1.30;;;1.20;;
23670;SDS011;12012;51.998;7.614;2023-07-29T12:14:29;1.92;;;1.10;;
23670;SDS011;12012;51.998;7.614;2023-07-29T12:16:55;1.40;;;1.20;;
23670;SDS011;12012;51.998;7.614;2023-07-29T12:19:21;1.10;;;1.00;;
23670;SDS011;12012;51.998;7.614;2023-07-29T12:21:50;3.42;;;1.38;;
23670;SDS011;12012;51.998;7.614;2023-07-29T12:24:15;1.02;;;1.00;;
23670;SDS011;12012;51.998;7.614;2023-07-29T12:26:41;1.55;;;1.10;;
23670;SDS011;12012;51.998;7.614;2023-07-29T12:29:25;2.25;;;1.10;;
23670;SDS011;12012;51.998;7.614;2023-07-29T12:32:01;1.50;;;1.30;;
23670;SDS011;12012;51.998;7.614;2023-07-29T12:34:28;1.35;;;1.25;;
23670;SDS011;12012;51.998;7.614;2023-07-29T12:36:56;2.95;;;1.10;;
23670;SDS011;12012;51.998;7.614;2023-07-29T12:39:24;1.55;;;1.20;;
23670;SDS011;12012;51.998;7.614;2023-07-29T12:41:54;2.70;;;1.45;;
23670;SDS011;12012;51.998;7.614;2023-07-29T12:44:25;1.35;;;1.20;;
23670;SDS011;12012;51.998;7.614;2023-07-29T12:46:54;1.80;;;1.10;;
23670;SDS011;12012;51.998;7.614;2023-07-29T12:49:20;1.42;;;1.00;;
23670;SDS011;12012;51.998;7.614;2023-07-29T12:51:45;1.27;;;1.00;;
23670;SDS011;12012;51.998;7.614;2023-07-29T12:54:11;2.00;;;1.40;;
23670;SDS011;12012;51.998;7.614;2023-07-29T12:56:37;1.42;;;1.33;;
23670;SDS011;12012;51.998;7.614;2023-07-29T12:59:02;1.40;;;1.30;;
23670;SDS011;12012;51.998;7.614;2023-07-29T13:01:28;1.42;;;1.23;;
23670;SDS011;12012;51.998;7.614;2023-07-29T13:03:54;1.50;;;1.40;;
23670;SDS011;12012;51.998;7.614;2023-07-29T13:06:21;1.95;;;1.13;;
23670;SDS011;12012;51.998;7.614;2023-07-29T13:08:47;1.10;;;0.90;;
23670;SDS011;12012;51.998;7.614;2023-07-29T13:11:14;1.45;;;1.20;;
23670;SDS011;12012;51.998;7.614;2023-07-29T13:13:40;1.30;;;1.20;;
23670;SDS011;12012;51.998;7.614;2023-07-29T13:16:06;1.83;;;1.30;;
23670;SDS011;12012;51.998;7.614;2023-07-29T13:18:31;1.83;;;1.30;;
23670;SDS011;12012;51.998;7.614;2023-07-29T13:20:57;1.27;;;1.17;;
23670;SDS011;12012;51.998;7.614;2023-07-29T13:23:23;1.25;;;1.08;;
23670;SDS011;12012;51.998;7.614;2023-07-29T13:25:49;1.45;;;1.08;;
23670;SDS011;12012;51.998;7.614;2023-07-29T13:28:15;1.70;;;1.33;;
23670;SDS011;12012;51.998;7.614;2023-07-29T13:30:41;1.50;;;1.40;;
23670;SDS011;12012;51.998;7.614;2023-07-29T13:33:07;2.17;;;1.13;;
23670;SDS011;12012;51.998;7.614;2023-07-29T13:35:33;1.50;;;1.27;;
23670;SDS011;12012;51.998;7.614;2023-07-29T13:37:59;4.13;;;1.40;;
23670;SDS011;12012;51.998;7.614;2023-07-29T13:40:26;2.28;;;1.50;;
23670;SDS011;12012;51.998;7.614;2023-07-29T13:42:51;1.50;;;1.40;;
23670;SDS011;12012;51.998;7.614;2023-07-29T13:45:17;2.35;;;1.20;;
23670;SDS011;12012;51.998;7.614;2023-07-29T13:47:43;1.55;;;1.35;;
23670;SDS011;12012;51.998;7.614;2023-07-29T13:50:09;1.77;;;1.50;;
23670;SDS011;12012;51.998;7.614;2023-07-29T13:52:35;1.55;;;1.20;;
23670;SDS011;12012;51.998;7.614;2023-07-29T13:55:02;1.50;;;1.40;;
23670;SDS011;12012;51.998;7.614;2023-07-29T13:57:28;1.77;;;1.40;;
23670;SDS011;12012;51.998;7.614;2023-07-29T13:59:54;2.47;;;1.55;;
23670;SDS011;12012;51.998;7.614;2023-07-29T14:02:19;5.15;;;2.08;;
23670;SDS011;12012;51.998;7.614;2023-07-29T14:04:45;5.18;;;2.50;;
23670;SDS011;12012;51.998;7.614;2023-07-29T14:07:10;7.68;;;2.60;;
23670;SDS011;12012;51.998;7.614;2023-07-29T14:09:36;14.77;;;2.90;;
23670;SDS011;12012;51.998;7.614;2023-07-29T14:12:03;9.60;;;3.35;;
23670;SDS011;12012;51.998;7.614;2023-07-29T14:14:29;7.72;;;3.35;;
23670;SDS011;12012;51.998;7.614;2023-07-29T14:16:55;4.85;;;2.50;;
23670;SDS011;12012;51.998;7.614;2023-07-29T14:19:20;2.83;;;2.35;;
23670;SDS011;12012;51.998;7.614;2023-07-29T14:21:46;4.25;;;2.20;;
23670;SDS011;12012;51.998;7.614;2023-07-29T14:24:11;7.30;;;2.80;;
23670;SDS011;12012;51.998;7.614;2023-07-29T14:26:37;4.50;;;2.80;;
23670;SDS011;12012;51.998;7.614;2023-07-29T14:29:02;4.05;;;3.00;;
23670;SDS011;12012;51.998;7.614;2023-07-29T14:31:28;6.43;;;3.15;;
23670;SDS011;12012;51.998;7.614;2023-07-29T14:33:53;5.80;;;2.95;;
23670;SDS011;12012;51.998;7.614;2023-07-29T14:36:19;5.93;;;3.40;;
23670;SDS011;12012;51.998;7.614;2023-07-29T14:38:48;13.05;;;4.38;;
23670;SDS011;12012;51.998;7.614;2023-07-29T14:41:14;6.93;;;3.30;;
23670;SDS011;12012;51.998;7.614;2023-07-29T14:43:40;7.22;;;3.53;;
23670;SDS011;12012;51.998;7.614;2023-07-29T14:46:05;6.28;;;3.17;;
23670;SDS011;12012;51.998;7.614;2023-07-29T14:48:31;10.25;;;2.78;;
23670;SDS011;12012;51.998;7.614;2023-07-29T14:50:57;6.65;;;2.72;;
23670;SDS011;12012;51.998;7.614;2023-07-29T14:53:22;4.65;;;2.53;;
23670;SDS011;12012;51.998;7.614;2023-07-29T14:55:48;6.60;;;2.72;;
23670;SDS011;12012;51.998;7.614;2023-07-29T14:58:14;4.22;;;2.42;;
23670;SDS011;12012;51.998;7.614;2023-07-29T15:00:40;4.00;;;1.73;;
23670;SDS011;12012;51.998;7.614;2023-07-29T15:03:05;1.50;;;1.30;;
23670;SDS011;12012;51.998;7.614;2023-07-29T15:05:32;2.63;;;1.10;;